Time;durP1;ratioP1;P1;durP2;ratioP2;P2;SDS_P1;SDS_P2;PMS_P1;PMS_P2;Temp;Humidity;BMP_temperature;BMP_pressure;BME280_temperature;BME280_humidity;BME280_pressure;Samples;Min_cycle;Max_cycle;Signal;HPM_P1;HPM_P2
2022/01/15 00:00:24;;;;;;;;;;;;;;;;;;5115708;28;20015;-89
2022/01/15 00:02:50;;;;;;;;;;;;;;;;;;5114271;28;19919;-86
2022/01/15 00:05:15;;;;;;;;;;;;;;;;;;5115689;28;19926;-85
2022/01/15 00:07:42;;;;;;;;;;;;;;;;;;5148496;27;19915;-86
2022/01/15 00:10:08;;;;;;;;;;;;;;;;;;5115470;27;19920;-86
2022/01/15 00:12:42;;;;;;;;;;;;;;;;;;5114163;28;19939;-85
2022/01/15 00:15:11;;;;;;;;;;;;;;;;;;5115341;28;20375;-89
2022/01/15 00:20:11;;;;;;;;;;;;;;;;;;5115328;28;19963;-86
2022/01/15 00:22:36;;;;;;;;;;;;;;;;;;5115259;28;19920;-87
2022/01/15 00:25:02;;;;;;;;;;;;;;;;;;5113815;28;20014;-85
2022/01/15 00:27:27;;;;;;;;;;;;;;;;;;5115106;28;20279;-86
2022/01/15 00:29:53;;;;;;;;;;;;;;;;;;5115053;28;19919;-86
2022/01/15 00:32:18;;;;;;;;;;;;;;;;;;5113641;28;19911;-86
2022/01/15 00:34:43;;;;;;;;;;;;;;;;;;5114931;28;19966;-89
2022/01/15 00:37:09;;;;;;;;;;;;;;;;;;5114980;28;19920;-89
2022/01/15 00:39:34;;;;;;;;;;;;;;;;;;5114782;28;19920;-89
2022/01/15 00:42:00;;;;;;;;;;;;;;;;;;5114854;28;19923;-85
2022/01/15 00:44:25;;;;;;;;;;;;;;;;;;5114826;28;19955;-86
2022/01/15 00:46:51;;;;;;;;;;;;;;;;;;5114472;28;20272;-84
2022/01/15 00:49:16;;;;;;;;;;;;;;;;;;5113458;28;20356;-91
2022/01/15 00:51:42;;;;;;;;;;;;;;;;;;5114658;28;20393;-90
2022/01/15 00:54:07;;;;;;;;;;;;;;;;;;5113552;28;20370;-85
2022/01/15 00:56:33;;;;;;;;;;;;;;;;;;5114566;28;20020;-85
2022/01/15 00:58:59;;;;;;;;;;;;;;;;;;5114411;28;19916;-84
2022/01/15 01:01:24;;;;;;;;;;;;;;;;;;5114456;28;19961;-87
2022/01/15 01:03:50;;;;;;;;;;;;;;;;;;5113044;28;19961;-85
2022/01/15 01:06:16;;;;;;;;;;;;;;;;;;5114286;28;19920;-87
2022/01/15 01:08:41;;;;;;;;;;;;;;;;;;5114326;28;19916;-85
2022/01/15 01:11:12;;;;;;;;;;;;;;;;;;5113307;28;19941;-90
2022/01/15 01:22:30;;;;;;;;;;;;;;;;;;5114217;28;19957;-89
2022/01/15 01:24:28;;;;;;;;;;;;;;;;;;5113978;27;19920;-84
2022/01/15 01:27:09;;;;;;;;;;;;;;;;;;5112721;28;20253;-84
2022/01/15 01:32:06;;;;;;;;;;;;;;;;;;5113987;28;20002;-86
2022/01/15 01:34:35;;;;;;;;;;;;;;;;;;5112605;28;20355;-85
2022/01/15 01:40:14;;;;;;;;;;;;;;;;;;5113991;28;19923;-85
2022/01/15 01:45:06;;;;;;;;;;;;;;;;;;5113581;28;19920;-87
2022/01/15 01:47:39;;;;;;;;;;;;;;;;;;5114097;28;20297;-85
2022/01/15 01:50:06;;;;;;;;;;;;;;;;;;5113831;28;19923;-90
2022/01/15 01:52:31;;;;;;;;;;;;;;;;;;5113760;28;19912;-86
2022/01/15 01:54:57;;;;;;;;;;;;;;;;;;5113721;28;19919;-85
2022/01/15 01:57:23;;;;;;;;;;;;;;;;;;5113839;28;19923;-85
2022/01/15 01:59:49;;;;;;;;;;;;;;;;;;5113722;28;19919;-84
2022/01/15 02:02:14;;;;;;;;;;;;;;;;;;5113636;28;19916;-84
2022/01/15 02:04:40;;;;;;;;;;;;;;;;;;5115142;28;20006;-86
2022/01/15 02:07:05;;;;;;;;;;;;;;;;;;5117769;28;20264;-84
2022/01/15 02:09:31;;;;;;;;;;;;;;;;;;5117820;28;19916;-87
2022/01/15 02:11:56;;;;;;;;;;;;;;;;;;5117801;28;19919;-86
2022/01/15 02:14:28;;;;;;;;;;;;;;;;;;5117646;28;20014;-88
2022/01/15 02:16:54;;;;;;;;;;;;;;;;;;5116339;28;20002;-83
2022/01/15 02:19:20;;;;;;;;;;;;;;;;;;5117570;28;20558;-86
2022/01/15 02:24:13;;;;;;;;;;;;;;;;;;5117536;28;19920;-88
2022/01/15 02:26:39;;;;;;;;;;;;;;;;;;5117398;28;19920;-85
2022/01/15 02:29:05;;;;;;;;;;;;;;;;;;5117521;28;20382;-85
2022/01/15 02:31:32;;;;;;;;;;;;;;;;;;5117327;27;19916;-84
2022/01/15 02:33:59;;;;;;;;;;;;;;;;;;5117358;28;19916;-86
2022/01/15 02:36:28;;;;;;;;;;;;;;;;;;5115909;28;19916;-84
2022/01/15 02:38:54;;;;;;;;;;;;;;;;;;5117268;28;20371;-85
2022/01/15 02:41:30;;;;;;;;;;;;;;;;;;5117214;28;19973;-85
2022/01/15 02:43:57;;;;;;;;;;;;;;;;;;5117143;27;20383;-88
2022/01/15 02:46:35;;;;;;;;;;;;;;;;;;5116846;28;19959;-86
2022/01/15 02:49:01;;;;;;;;;;;;;;;;;;5116990;28;19973;-85
2022/01/15 02:51:28;;;;;;;;;;;;;;;;;;5117017;28;19916;-84
2022/01/15 02:53:57;;;;;;;;;;;;;;;;;;5115646;28;19923;-84
2022/01/15 02:56:22;;;;;;;;;;;;;;;;;;5116884;28;19999;-85
2022/01/15 02:58:48;;;;;;;;;;;;;;;;;;5115531;28;20432;-87
2022/01/15 03:01:14;;;;;;;;;;;;;;;;;;5115520;28;19923;-85
2022/01/15 03:03:39;;;;;;;;;;;;;;;;;;5116726;28;19916;-85
2022/01/15 03:06:08;;;;;;;;;;;;;;;;;;5116618;28;20038;-87
2022/01/15 03:08:34;;;;;;;;;;;;;;;;;;5116717;28;19916;-88
2022/01/15 03:11:01;;;;;;;;;;;;;;;;;;5115180;28;19961;-85
2022/01/15 03:13:26;;;;;;;;;;;;;;;;;;5149680;27;19924;-88
2022/01/15 03:15:51;;;;;;;;;;;;;;;;;;5115357;28;20379;-87
2022/01/15 03:18:17;;;;;;;;;;;;;;;;;;5116496;28;19951;-83
2022/01/15 03:20:42;;;;;;;;;;;;;;;;;;5116501;28;19982;-85
2022/01/15 03:23:08;;;;;;;;;;;;;;;;;;5116413;28;20435;-85
2022/01/15 03:25:33;;;;;;;;;;;;;;;;;;5149390;27;19922;-90
2022/01/15 03:27:59;;;;;;;;;;;;;;;;;;5116219;28;19961;-87
2022/01/15 03:30:24;;;;;;;;;;;;;;;;;;5116184;28;19923;-85
2022/01/15 03:32:49;;;;;;;;;;;;;;;;;;5114842;28;19916;-85
2022/01/15 03:35:15;;;;;;;;;;;;;;;;;;5116145;28;19916;-84
2022/01/15 03:37:42;;;;;;;;;;;;;;;;;;5115980;28;19955;-86
2022/01/15 03:40:09;;;;;;;;;;;;;;;;;;5114728;28;19926;-85
2022/01/15 03:42:34;;;;;;;;;;;;;;;;;;5114733;28;19916;-85
2022/01/15 03:45:00;;;;;;;;;;;;;;;;;;5115763;28;19920;-85
2022/01/15 03:47:25;;;;;;;;;;;;;;;;;;5115883;28;19919;-85
2022/01/15 03:49:51;;;;;;;;;;;;;;;;;;5115828;28;19945;-85
2022/01/15 03:52:16;;;;;;;;;;;;;;;;;;5114646;28;19955;-89
2022/01/15 03:54:41;;;;;;;;;;;;;;;;;;5148914;27;20382;-90
2022/01/15 03:57:07;;;;;;;;;;;;;;;;;;5118644;27;19920;-91
2022/01/15 03:59:32;;;;;;;;;;;;;;;;;;5134791;27;19916;-88
2022/01/15 04:01:58;;;;;;;;;;;;;;;;;;5134610;27;19942;-84
2022/01/15 04:04:23;;;;;;;;;;;;;;;;;;5135434;27;19922;-89
2022/01/15 04:06:49;;;;;;;;;;;;;;;;;;5134543;27;19916;-89
2022/01/15 04:09:15;;;;;;;;;;;;;;;;;;5169333;27;19970;-84
2022/01/15 04:11:41;;;;;;;;;;;;;;;;;;5135920;27;19919;-85
2022/01/15 04:14:07;;;;;;;;;;;;;;;;;;5134915;27;20013;-86
2022/01/15 04:16:32;;;;;;;;;;;;;;;;;;5169271;27;19915;-89
2022/01/15 04:18:58;;;;;;;;;;;;;;;;;;5169211;27;19985;-85
2022/01/15 04:21:24;;;;;;;;;;;;;;;;;;5135769;27;19923;-85
2022/01/15 04:23:49;;;;;;;;;;;;;;;;;;5135815;27;20375;-85
2022/01/15 04:26:15;;;;;;;;;;;;;;;;;;5168856;27;19911;-84
2022/01/15 04:28:41;;;;;;;;;;;;;;;;;;5135729;27;19915;-84
2022/01/15 04:31:08;;;;;;;;;;;;;;;;;;5169035;27;19919;-86
2022/01/15 04:33:34;;;;;;;;;;;;;;;;;;5135613;27;20382;-85
2022/01/15 04:36:00;;;;;;;;;;;;;;;;;;5135562;27;19955;-84
2022/01/15 04:38:25;;;;;;;;;;;;;;;;;;5135478;27;19938;-87
2022/01/15 04:40:51;;;;;;;;;;;;;;;;;;5135571;27;19919;-84
2022/01/15 04:43:16;;;;;;;;;;;;;;;;;;5135349;27;19946;-89
2022/01/15 04:45:42;;;;;;;;;;;;;;;;;;5135128;27;19931;-84
2022/01/15 04:48:07;;;;;;;;;;;;;;;;;;5135267;27;19927;-84
2022/01/15 04:50:32;;;;;;;;;;;;;;;;;;5135229;27;19919;-86
2022/01/15 04:52:58;;;;;;;;;;;;;;;;;;5135214;27;20443;-84
2022/01/15 04:55:23;;;;;;;;;;;;;;;;;;5133819;27;19919;-86
2022/01/15 04:57:49;;;;;;;;;;;;;;;;;;5133773;27;20384;-84
2022/01/15 05:00:16;;;;;;;;;;;;;;;;;;5135090;27;19916;-84
2022/01/15 05:02:41;;;;;;;;;;;;;;;;;;5168314;27;19921;-84
2022/01/15 05:05:07;;;;;;;;;;;;;;;;;;5168257;27;20017;-90
2022/01/15 05:07:33;;;;;;;;;;;;;;;;;;5134801;27;19915;-91
2022/01/15 05:09:58;;;;;;;;;;;;;;;;;;5133544;27;19961;-90
2022/01/15 05:12:40;;;;;;;;;;;;;;;;;;5134860;27;20640;-88
2022/01/15 05:15:06;;;;;;;;;;;;;;;;;;5134861;27;20084;-86
2022/01/15 05:17:31;;;;;;;;;;;;;;;;;;5134702;27;19916;-85
2022/01/15 05:19:57;;;;;;;;;;;;;;;;;;5133307;27;19922;-87
2022/01/15 05:22:22;;;;;;;;;;;;;;;;;;5133293;27;20021;-85
2022/01/15 05:24:48;;;;;;;;;;;;;;;;;;5134702;27;19922;-85
2022/01/15 05:27:14;;;;;;;;;;;;;;;;;;5133225;27;19955;-87
2022/01/15 05:29:39;;;;;;;;;;;;;;;;;;5167993;27;20301;-86
2022/01/15 05:32:05;;;;;;;;;;;;;;;;;;5134539;27;19911;-88
2022/01/15 05:34:30;;;;;;;;;;;;;;;;;;5167946;27;19916;-91
2022/01/15 05:36:56;;;;;;;;;;;;;;;;;;5134483;27;19930;-90
2022/01/15 05:39:21;;;;;;;;;;;;;;;;;;5133849;27;19923;-86
2022/01/15 05:41:46;;;;;;;;;;;;;;;;;;5133153;27;19919;-87
2022/01/15 05:44:12;;;;;;;;;;;;;;;;;;5134409;27;20002;-90
2022/01/15 05:46:37;;;;;;;;;;;;;;;;;;5134086;27;20010;-85
2022/01/15 05:49:03;;;;;;;;;;;;;;;;;;5134253;27;20375;-85
2022/01/15 05:51:31;;;;;;;;;;;;;;;;;;5134331;27;19911;-86
2022/01/15 05:53:58;;;;;;;;;;;;;;;;;;5123131;28;19920;-86
2022/01/15 05:56:23;;;;;;;;;;;;;;;;;;5125103;28;19923;-85
2022/01/15 05:58:49;;;;;;;;;;;;;;;;;;5119517;28;19915;-85
2022/01/15 06:01:14;;;;;;;;;;;;;;;;;;5134243;27;19920;-91
2022/01/15 06:03:40;;;;;;;;;;;;;;;;;;5120629;27;19956;-90
2022/01/15 06:06:05;;;;;;;;;;;;;;;;;;5118481;27;19966;-85
2022/01/15 06:08:33;;;;;;;;;;;;;;;;;;5121013;28;19919;-84
2022/01/15 06:10:58;;;;;;;;;;;;;;;;;;5123306;27;20405;-89
2022/01/15 06:13:24;;;;;;;;;;;;;;;;;;5118832;28;19955;-86
2022/01/15 06:15:49;;;;;;;;;;;;;;;;;;5126152;28;19999;-86
2022/01/15 06:18:15;;;;;;;;;;;;;;;;;;5114920;27;19926;-90
2022/01/15 06:20:40;;;;;;;;;;;;;;;;;;5115549;28;19923;-91
2022/01/15 06:23:06;;;;;;;;;;;;;;;;;;5118193;27;19988;-87
2022/01/15 06:25:31;;;;;;;;;;;;;;;;;;5151181;27;19927;-91
2022/01/15 06:27:56;;;;;;;;;;;;;;;;;;5120122;28;19956;-87
2022/01/15 06:30:22;;;;;;;;;;;;;;;;;;5116173;28;19924;-91
2022/01/15 06:32:47;;;;;;;;;;;;;;;;;;5117798;28;19919;-91
2022/01/15 06:35:13;;;;;;;;;;;;;;;;;;5117404;27;19921;-87
2022/01/15 06:37:39;;;;;;;;;;;;;;;;;;5120688;28;20820;-87
2022/01/15 06:40:06;;;;;;;;;;;;;;;;;;5124122;27;19916;-87
2022/01/15 06:42:31;;;;;;;;;;;;;;;;;;5120297;27;19923;-86
2022/01/15 06:44:57;;;;;;;;;;;;;;;;;;5125646;28;19957;-90
2022/01/15 06:47:22;;;;;;;;;;;;;;;;;;5118449;27;19928;-88
2022/01/15 06:49:47;;;;;;;;;;;;;;;;;;5115990;27;20661;-87
2022/01/15 06:52:13;;;;;;;;;;;;;;;;;;5118410;27;19945;-90
2022/01/15 06:54:38;;;;;;;;;;;;;;;;;;5121204;27;19927;-89
2022/01/15 06:57:04;;;;;;;;;;;;;;;;;;5122195;27;19920;-88
2022/01/15 06:59:29;;;;;;;;;;;;;;;;;;5118056;27;20391;-86
2022/01/15 07:01:55;;;;;;;;;;;;;;;;;;5116993;27;19927;-89
2022/01/15 07:04:20;;;;;;;;;;;;;;;;;;5118176;27;19919;-88
2022/01/15 07:06:46;;;;;;;;;;;;;;;;;;5119812;27;19928;-87
2022/01/15 07:09:11;;;;;;;;;;;;;;;;;;5119448;27;19920;-89
2022/01/15 07:11:37;;;;;;;;;;;;;;;;;;5126415;27;19919;-85
2022/01/15 07:14:02;;;;;;;;;;;;;;;;;;5137124;27;19987;-86
2022/01/15 07:16:28;;;;;;;;;;;;;;;;;;5124865;27;19919;-87
2022/01/15 07:18:53;;;;;;;;;;;;;;;;;;5116607;28;19920;-88
2022/01/15 07:21:18;;;;;;;;;;;;;;;;;;5116412;27;19915;-88
2022/01/15 07:23:44;;;;;;;;;;;;;;;;;;5115260;28;19916;-90
2022/01/15 07:26:10;;;;;;;;;;;;;;;;;;5118738;27;20334;-91
2022/01/15 07:28:35;;;;;;;;;;;;;;;;;;5122576;27;19920;-87
2022/01/15 07:31:01;;;;;;;;;;;;;;;;;;5121939;27;20279;-87
2022/01/15 07:33:26;;;;;;;;;;;;;;;;;;5119676;27;19928;-86
2022/01/15 07:35:52;;;;;;;;;;;;;;;;;;5123721;27;19923;-88
2022/01/15 07:38:20;;;;;;;;;;;;;;;;;;5120778;27;19919;-92
2022/01/15 07:40:46;;;;;;;;;;;;;;;;;;5117860;27;20014;-86
2022/01/15 07:43:11;;;;;;;;;;;;;;;;;;5130361;27;19927;-86
2022/01/15 07:45:37;;;;;;;;;;;;;;;;;;5118817;27;19934;-87
2022/01/15 07:48:02;;;;;;;;;;;;;;;;;;5125678;27;20026;-86
2022/01/15 07:50:28;;;;;;;;;;;;;;;;;;5119930;27;19973;-87
2022/01/15 07:52:54;;;;;;;;;;;;;;;;;;5126264;27;19972;-85
2022/01/15 07:55:20;;;;;;;;;;;;;;;;;;5119292;27;19974;-85
2022/01/15 07:57:45;;;;;;;;;;;;;;;;;;5123639;27;20041;-86
2022/01/15 08:00:14;;;;;;;;;;;;;;;;;;5120397;27;19927;-84
2022/01/15 08:02:40;;;;;;;;;;;;;;;;;;5117692;27;20014;-85
2022/01/15 08:05:05;;;;;;;;;;;;;;;;;;5118488;27;20018;-85
2022/01/15 08:07:31;;;;;;;;;;;;;;;;;;5113714;27;19923;-87
2022/01/15 08:09:56;;;;;;;;;;;;;;;;;;5115301;27;20015;-85
2022/01/15 08:12:22;;;;;;;;;;;;;;;;;;5115049;27;20014;-86
2022/01/15 08:14:49;;;;;;;;;;;;;;;;;;5121053;27;19992;-88
2022/01/15 08:17:15;;;;;;;;;;;;;;;;;;5119783;27;19965;-88
2022/01/15 08:19:41;;;;;;;;;;;;;;;;;;5115428;27;19924;-85
2022/01/15 08:22:06;;;;;;;;;;;;;;;;;;5119896;27;20401;-86
2022/01/15 08:24:32;;;;;;;;;;;;;;;;;;5121356;27;19923;-84
2022/01/15 08:26:57;;;;;;;;;;;;;;;;;;5127235;27;20378;-87
2022/01/15 08:29:23;;;;;;;;;;;;;;;;;;5124013;27;19923;-87
2022/01/15 08:31:48;;;;;;;;;;;;;;;;;;5119127;27;19984;-89
2022/01/15 08:34:13;;;;;;;;;;;;;;;;;;5168387;27;19920;-91
2022/01/15 08:36:39;;;;;;;;;;;;;;;;;;5134187;27;19915;-86
2022/01/15 08:39:05;;;;;;;;;;;;;;;;;;5135420;27;19923;-88
2022/01/15 08:41:30;;;;;;;;;;;;;;;;;;5134000;27;19923;-82
2022/01/15 08:43:56;;;;;;;;;;;;;;;;;;5135355;27;19925;-86
2022/01/15 08:46:24;;;;;;;;;;;;;;;;;;5130779;27;19919;-87
2022/01/15 08:48:50;;;;;;;;;;;;;;;;;;5135031;27;20367;-85
2022/01/15 08:51:16;;;;;;;;;;;;;;;;;;5136007;27;20002;-86
2022/01/15 08:53:41;;;;;;;;;;;;;;;;;;5134047;27;20317;-86
2022/01/15 08:56:07;;;;;;;;;;;;;;;;;;5135133;27;19919;-88
2022/01/15 08:58:33;;;;;;;;;;;;;;;;;;5128961;27;19929;-84
2022/01/15 09:00:58;;;;;;;;;;;;;;;;;;5123502;27;20321;-85
2022/01/15 09:03:25;;;;;;;;;;;;;;;;;;5122307;27;19942;-85
2022/01/15 09:05:51;;;;;;;;;;;;;;;;;;5121344;27;19932;-85
2022/01/15 09:08:19;;;;;;;;;;;;;;;;;;5117467;27;19959;-86
2022/01/15 09:10:45;;;;;;;;;;;;;;;;;;5121874;27;20276;-87
2022/01/15 09:13:10;;;;;;;;;;;;;;;;;;5117123;27;19927;-80
2022/01/15 09:15:36;;;;;;;;;;;;;;;;;;5115707;27;19970;-81
2022/01/15 09:18:01;;;;;;;;;;;;;;;;;;5121320;27;19924;-89
2022/01/15 09:20:27;;;;;;;;;;;;;;;;;;5125612;27;19934;-87
2022/01/15 09:22:53;;;;;;;;;;;;;;;;;;5120290;27;19919;-90
2022/01/15 09:25:18;;;;;;;;;;;;;;;;;;5118747;27;19928;-82
2022/01/15 09:30:37;;;;;;;;;;;;;;;;;;5120092;27;20446;-79
2022/01/15 09:33:03;;;;;;;;;;;;;;;;;;5124501;27;19924;-85
2022/01/15 09:35:29;;;;;;;;;;;;;;;;;;5125868;27;19923;-89
2022/01/15 09:37:54;;;;;;;;;;;;;;;;;;5122680;27;19978;-86
2022/01/15 09:40:25;;;;;;;;;;;;;;;;;;5120510;27;19925;-85
2022/01/15 09:42:51;;;;;;;;;;;;;;;;;;5116963;27;19920;-87
2022/01/15 09:45:18;;;;;;;;;;;;;;;;;;5125199;27;19931;-87
2022/01/15 09:47:44;;;;;;;;;;;;;;;;;;5125652;27;19963;-84
2022/01/15 09:50:13;;;;;;;;;;;;;;;;;;5134321;27;19922;-83
2022/01/15 09:52:39;;;;;;;;;;;;;;;;;;5167827;27;19965;-84
2022/01/15 09:55:06;;;;;;;;;;;;;;;;;;5167481;27;20363;-81
2022/01/15 09:57:34;;;;;;;;;;;;;;;;;;5134433;27;19911;-88
2022/01/15 10:00:01;;;;;;;;;;;;;;;;;;5133998;27;19919;-84
2022/01/15 10:02:26;;;;;;;;;;;;;;;;;;5134083;27;20294;-86
2022/01/15 10:04:52;;;;;;;;;;;;;;;;;;5167590;27;19911;-83
2022/01/15 10:07:20;;;;;;;;;;;;;;;;;;5133647;27;19933;-84
2022/01/15 10:09:48;;;;;;;;;;;;;;;;;;5167663;27;19916;-82
2022/01/15 10:12:22;;;;;;;;;;;;;;;;;;5125837;27;19920;-81
2022/01/15 10:14:48;;;;;;;;;;;;;;;;;;5116332;28;19926;-79
2022/01/15 10:17:33;;;;;;;;;;;;;;;;;;5118503;28;19920;-87
2022/01/15 10:19:58;;;;;;;;;;;;;;;;;;5118931;28;19919;-80
2022/01/15 10:22:25;;;;;;;;;;;;;;;;;;5122348;28;20030;-81
2022/01/15 10:24:52;;;;;;;;;;;;;;;;;;5118467;27;19969;-84
2022/01/15 10:27:23;;;;;;;;;;;;;;;;;;5120971;27;19923;-87
2022/01/15 10:29:50;;;;;;;;;;;;;;;;;;5121882;27;19972;-83
2022/01/15 10:32:15;;;;;;;;;;;;;;;;;;5129379;27;19974;-84
2022/01/15 10:34:42;;;;;;;;;;;;;;;;;;5127612;27;19959;-81
2022/01/15 10:37:24;;;;;;;;;;;;;;;;;;5134487;27;19915;-84
2022/01/15 10:39:57;;;;;;;;;;;;;;;;;;5147630;27;19977;-84
2022/01/15 10:42:25;;;;;;;;;;;;;;;;;;5124968;27;20359;-81
2022/01/15 10:44:52;;;;;;;;;;;;;;;;;;5121744;27;19967;-81
2022/01/15 10:47:19;;;;;;;;;;;;;;;;;;5120293;27;19920;-81
2022/01/15 10:52:21;;;;;;;;;;;;;;;;;;5171495;22;20289;-81
2022/01/15 10:54:57;;;;;;;;;;;;;;;;;;5044099;28;19967;-83
2022/01/15 10:57:43;;;;;;;;;;;;;;;;;;5055943;28;19973;-81
2022/01/15 11:00:11;;;;;;;;;;;;;;;;;;5055357;28;19960;-81
2022/01/15 11:02:37;;;;;;;;;;;;;;;;;;5055718;28;19929;-87
2022/01/15 11:05:03;;;;;;;;;;;;;;;;;;5055854;28;20710;-84
2022/01/15 11:07:34;;;;;;;;;;;;;;;;;;5055877;28;20390;-79
2022/01/15 11:10:02;;;;;;;;;;;;;;;;;;5055795;28;19916;-79
2022/01/15 11:12:27;;;;;;;;;;;;;;;;;;5037842;28;20011;-78
2022/01/15 11:14:53;;;;;;;;;;;;;;;;;;5055532;28;20039;-80
2022/01/15 11:17:18;;;;;;;;;;;;;;;;;;5055562;28;19959;-81
2022/01/15 11:19:45;;;;;;;;;;;;;;;;;;5055611;28;19920;-80
2022/01/15 11:22:11;;;;;;;;;;;;;;;;;;5055520;28;19962;-79
2022/01/15 11:24:37;;;;;;;;;;;;;;;;;;5055375;28;19916;-79
2022/01/15 11:27:03;;;;;;;;;;;;;;;;;;5055298;28;19917;-80
2022/01/15 11:29:29;;;;;;;;;;;;;;;;;;5055391;28;19952;-77
2022/01/15 11:31:57;;;;;;;;;;;;;;;;;;5052909;28;20415;-82
2022/01/15 11:34:27;;;;;;;;;;;;;;;;;;5048435;28;20028;-84
2022/01/15 11:36:53;;;;;;;;;;;;;;;;;;5043436;28;20011;-82
2022/01/15 11:39:28;;;;;;;;;;;;;;;;;;5056121;28;20437;-84
2022/01/15 11:41:57;;;;;;;;;;;;;;;;;;5052208;28;19921;-82
2022/01/15 11:44:28;;;;;;;;;;;;;;;;;;5053649;28;19921;-81
2022/01/15 11:46:54;;;;;;;;;;;;;;;;;;5048832;28;19925;-89
2022/01/15 11:49:44;;;;;;;;;;;;;;;;;;5034881;28;19921;-81
2022/01/15 11:52:10;;;;;;;;;;;;;;;;;;5037475;28;20320;-84
2022/01/15 11:54:37;;;;;;;;;;;;;;;;;;5068427;28;20519;-82
2022/01/15 11:57:03;;;;;;;;;;;;;;;;;;5053061;28;20443;-83
2022/01/15 11:59:28;;;;;;;;;;;;;;;;;;5037068;28;19947;-80
2022/01/15 12:01:54;;;;;;;;;;;;;;;;;;5054885;28;19920;-86
2022/01/15 12:04:45;;;;;;;;;;;;;;;;;;5054835;28;20400;-86
2022/01/15 12:07:16;;;;;;;;;;;;;;;;;;5054786;28;20468;-83
2022/01/15 12:09:43;;;;;;;;;;;;;;;;;;5051374;28;21638;-82
2022/01/15 12:12:21;;;;;;;;;;;;;;;;;;5038834;28;19931;-86
2022/01/15 12:14:47;;;;;;;;;;;;;;;;;;5061733;28;19925;-83
2022/01/15 12:17:22;;;;;;;;;;;;;;;;;;5033963;28;20011;-81
2022/01/15 12:19:48;;;;;;;;;;;;;;;;;;5051533;28;19994;-80
2022/01/15 12:22:33;;;;;;;;;;;;;;;;;;5064603;28;19921;-83
2022/01/15 12:24:58;;;;;;;;;;;;;;;;;;5048218;28;19964;-82
2022/01/15 12:27:27;;;;;;;;;;;;;;;;;;5052913;28;19994;-81
2022/01/15 12:30:13;;;;;;;;;;;;;;;;;;5050679;28;19925;-82
2022/01/15 12:32:43;;;;;;;;;;;;;;;;;;5047487;28;19968;-81
2022/01/15 12:35:15;;;;;;;;;;;;;;;;;;5044839;28;19925;-84
2022/01/15 12:37:59;;;;;;;;;;;;;;;;;;5040588;28;19924;-87
2022/01/15 12:40:32;;;;;;;;;;;;;;;;;;5066453;28;20476;-83
2022/01/15 12:42:58;;;;;;;;;;;;;;;;;;5057893;28;20324;-84
2022/01/15 12:45:24;;;;;;;;;;;;;;;;;;5053832;28;19916;-83
2022/01/15 12:47:50;;;;;;;;;;;;;;;;;;5053404;28;19947;-84
2022/01/15 12:50:15;;;;;;;;;;;;;;;;;;5051740;28;20995;-83
2022/01/15 12:52:40;;;;;;;;;;;;;;;;;;5041857;28;19932;-84
2022/01/15 12:55:06;;;;;;;;;;;;;;;;;;5038759;28;19929;-83
2022/01/15 12:57:36;;;;;;;;;;;;;;;;;;5044791;28;19917;-89
2022/01/15 13:00:09;;;;;;;;;;;;;;;;;;5044816;28;19921;-80
2022/01/15 13:02:34;;;;;;;;;;;;;;;;;;5042349;28;20324;-81
2022/01/15 13:04:59;;;;;;;;;;;;;;;;;;5048045;28;19970;-79
2022/01/15 13:07:25;;;;;;;;;;;;;;;;;;5039343;28;20355;-80
2022/01/15 13:09:50;;;;;;;;;;;;;;;;;;5040329;28;19924;-78
2022/01/15 13:12:16;;;;;;;;;;;;;;;;;;5039088;28;19925;-79
2022/01/15 13:14:43;;;;;;;;;;;;;;;;;;5040081;28;20393;-83
2022/01/15 13:17:24;;;;;;;;;;;;;;;;;;5046592;28;19935;-79
2022/01/15 13:19:50;;;;;;;;;;;;;;;;;;5028073;28;20308;-80
2022/01/15 13:22:22;;;;;;;;;;;;;;;;;;5038616;28;19928;-80
2022/01/15 13:24:56;;;;;;;;;;;;;;;;;;5046899;28;19928;-78
2022/01/15 13:27:21;;;;;;;;;;;;;;;;;;5034651;28;19996;-81
2022/01/15 13:29:47;;;;;;;;;;;;;;;;;;5038806;28;19921;-82
2022/01/15 13:32:12;;;;;;;;;;;;;;;;;;5037323;28;19921;-83
2022/01/15 13:34:38;;;;;;;;;;;;;;;;;;5053778;28;19929;-80
2022/01/15 13:37:08;;;;;;;;;;;;;;;;;;5036667;28;20269;-82
2022/01/15 13:39:33;;;;;;;;;;;;;;;;;;5025893;28;19925;-82
2022/01/15 13:41:59;;;;;;;;;;;;;;;;;;5035916;28;19936;-82
2022/01/15 13:44:29;;;;;;;;;;;;;;;;;;5036063;28;19978;-78
2022/01/15 13:46:55;;;;;;;;;;;;;;;;;;5038162;28;20411;-82
2022/01/15 13:49:24;;;;;;;;;;;;;;;;;;5037945;28;19921;-88
2022/01/15 13:54:54;;;;;;;;;;;;;;;;;;5049675;28;19932;-83
2022/01/15 13:57:24;;;;;;;;;;;;;;;;;;5052805;28;19928;-84
2022/01/15 13:59:56;;;;;;;;;;;;;;;;;;5034637;28;19939;-84
2022/01/15 14:02:26;;;;;;;;;;;;;;;;;;5052766;28;20360;-82
2022/01/15 14:05:07;;;;;;;;;;;;;;;;;;5052693;28;19917;-81
2022/01/15 14:07:36;;;;;;;;;;;;;;;;;;5052658;28;19917;-80
2022/01/15 14:10:06;;;;;;;;;;;;;;;;;;5052930;28;19924;-83
2022/01/15 14:12:32;;;;;;;;;;;;;;;;;;5052735;28;19917;-84
2022/01/15 14:15:04;;;;;;;;;;;;;;;;;;5052567;28;20383;-83
2022/01/15 14:17:31;;;;;;;;;;;;;;;;;;5052575;28;19916;-85
2022/01/15 14:22:24;;;;;;;;;;;;;;;;;;5052475;28;19939;-80
2022/01/15 14:24:50;;;;;;;;;;;;;;;;;;5052284;28;19916;-83
2022/01/15 14:27:24;;;;;;;;;;;;;;;;;;5052521;28;19923;-80
2022/01/15 14:29:51;;;;;;;;;;;;;;;;;;5052597;28;20008;-82
2022/01/15 14:32:17;;;;;;;;;;;;;;;;;;5052540;28;19917;-86
2022/01/15 14:34:42;;;;;;;;;;;;;;;;;;5067841;28;20091;-83
2022/01/15 14:37:09;;;;;;;;;;;;;;;;;;5067814;28;20007;-84
2022/01/15 14:39:35;;;;;;;;;;;;;;;;;;5052287;28;19916;-83
2022/01/15 14:42:02;;;;;;;;;;;;;;;;;;5067650;28;19920;-82
2022/01/15 14:44:29;;;;;;;;;;;;;;;;;;5062294;28;19944;-81
2022/01/15 14:46:54;;;;;;;;;;;;;;;;;;5069802;28;19912;-86
2022/01/15 14:49:19;;;;;;;;;;;;;;;;;;5070504;28;19917;-81
2022/01/15 14:51:45;;;;;;;;;;;;;;;;;;5034639;28;19923;-81
2022/01/15 14:54:10;;;;;;;;;;;;;;;;;;5052333;28;19923;-81
2022/01/15 14:56:36;;;;;;;;;;;;;;;;;;5052215;28;19917;-82
2022/01/15 14:59:01;;;;;;;;;;;;;;;;;;5052159;28;20033;-84
2022/01/15 15:01:27;;;;;;;;;;;;;;;;;;5034564;28;19917;-81
2022/01/15 15:03:53;;;;;;;;;;;;;;;;;;5052290;28;19920;-82
2022/01/15 15:06:18;;;;;;;;;;;;;;;;;;5052122;28;19967;-81
2022/01/15 15:08:53;;;;;;;;;;;;;;;;;;5035559;28;19921;-84
2022/01/15 15:11:19;;;;;;;;;;;;;;;;;;5035256;28;19920;-81
2022/01/15 15:13:44;;;;;;;;;;;;;;;;;;5055192;28;19932;-82
2022/01/15 15:16:12;;;;;;;;;;;;;;;;;;5055534;28;19917;-81
2022/01/15 15:18:38;;;;;;;;;;;;;;;;;;5055670;28;19924;-81
2022/01/15 15:21:03;;;;;;;;;;;;;;;;;;5055513;28;19921;-81
2022/01/15 15:23:30;;;;;;;;;;;;;;;;;;5055460;28;20038;-86
2022/01/15 15:25:56;;;;;;;;;;;;;;;;;;5055607;28;20288;-80
2022/01/15 15:28:21;;;;;;;;;;;;;;;;;;5053701;28;19917;-82
2022/01/15 15:30:47;;;;;;;;;;;;;;;;;;5040623;28;19921;-82
2022/01/15 15:33:12;;;;;;;;;;;;;;;;;;5056116;28;20043;-84
2022/01/15 15:35:38;;;;;;;;;;;;;;;;;;5051414;28;19924;-82
2022/01/15 15:38:03;;;;;;;;;;;;;;;;;;5053778;28;20296;-80
2022/01/15 15:40:29;;;;;;;;;;;;;;;;;;5053700;28;19958;-81
2022/01/15 15:42:54;;;;;;;;;;;;;;;;;;5071129;28;19970;-88
2022/01/15 15:45:19;;;;;;;;;;;;;;;;;;5037559;28;20382;-86
2022/01/15 15:47:45;;;;;;;;;;;;;;;;;;5054245;28;19971;-82
2022/01/15 15:50:10;;;;;;;;;;;;;;;;;;5055059;28;19921;-82
2022/01/15 15:52:36;;;;;;;;;;;;;;;;;;5054751;28;19933;-82
2022/01/15 15:55:02;;;;;;;;;;;;;;;;;;5054904;28;20023;-87
2022/01/15 15:57:27;;;;;;;;;;;;;;;;;;5054917;28;19928;-83
2022/01/15 15:59:54;;;;;;;;;;;;;;;;;;5037036;28;19943;-85
2022/01/15 16:02:19;;;;;;;;;;;;;;;;;;5054785;28;20007;-83
2022/01/15 16:04:45;;;;;;;;;;;;;;;;;;5054243;28;19959;-83
2022/01/15 16:07:11;;;;;;;;;;;;;;;;;;5054554;28;19917;-83
2022/01/15 16:09:37;;;;;;;;;;;;;;;;;;5036656;28;19980;-84
2022/01/15 16:12:02;;;;;;;;;;;;;;;;;;5054774;28;19913;-83
2022/01/15 16:14:30;;;;;;;;;;;;;;;;;;5054739;28;19928;-84
2022/01/15 16:16:56;;;;;;;;;;;;;;;;;;5054545;28;19920;-84
2022/01/15 16:19:21;;;;;;;;;;;;;;;;;;5054535;28;19916;-85
2022/01/15 16:21:47;;;;;;;;;;;;;;;;;;5054388;28;19963;-88
2022/01/15 16:24:12;;;;;;;;;;;;;;;;;;5053932;28;19913;-85
2022/01/15 16:26:38;;;;;;;;;;;;;;;;;;5036639;28;20400;-86
2022/01/15 16:29:04;;;;;;;;;;;;;;;;;;5054239;28;19924;-84
2022/01/15 16:31:30;;;;;;;;;;;;;;;;;;5054426;28;20354;-86
2022/01/15 16:33:55;;;;;;;;;;;;;;;;;;5036534;28;19917;-85
2022/01/15 16:36:21;;;;;;;;;;;;;;;;;;5054204;28;19917;-84
2022/01/15 16:38:46;;;;;;;;;;;;;;;;;;5054233;28;20012;-85
2022/01/15 16:41:12;;;;;;;;;;;;;;;;;;5054087;28;19917;-86
2022/01/15 16:43:38;;;;;;;;;;;;;;;;;;5054092;28;20365;-85
2022/01/15 16:46:03;;;;;;;;;;;;;;;;;;5053876;28;19999;-86
2022/01/15 16:48:29;;;;;;;;;;;;;;;;;;5054033;28;20388;-85
2022/01/15 16:50:54;;;;;;;;;;;;;;;;;;5053806;28;19916;-85
2022/01/15 16:53:20;;;;;;;;;;;;;;;;;;5053357;28;19959;-83
2022/01/15 16:55:46;;;;;;;;;;;;;;;;;;5053796;28;19924;-84
2022/01/15 16:58:11;;;;;;;;;;;;;;;;;;5053670;28;20399;-83
2022/01/15 17:00:37;;;;;;;;;;;;;;;;;;5053967;28;19917;-85
2022/01/15 17:03:03;;;;;;;;;;;;;;;;;;5035700;28;19928;-87
2022/01/15 17:05:28;;;;;;;;;;;;;;;;;;5035689;28;19920;-87
2022/01/15 17:07:54;;;;;;;;;;;;;;;;;;5053552;28;19921;-84
2022/01/15 17:10:20;;;;;;;;;;;;;;;;;;5035568;28;19924;-85
2022/01/15 17:12:45;;;;;;;;;;;;;;;;;;5053257;28;19917;-86
2022/01/15 17:15:11;;;;;;;;;;;;;;;;;;5053208;28;20027;-86